Latest Weather Observations for Tin Can Bay (Defence)

IDQ60901

Issued at 10:31 pm EST Friday 22 June 2018 (issued every 10 minutes, with the page automatically refreshed every 10 minutes)

About weather observations | Map of Brisbane area stations | Latest observations for Brisbane area | Other Formats
Station Details ID: 140010 Name: TIN CAN BAY (DEFENCE) Lat: -25.94 Lon: 152.96 Height: 31.26 m
Data from the previous 72 hours. | See also: Recent months for locations in Queensland
Date/Time
EST
Temp
°C
App
Temp
°C
Dew
Point
°C
Rel
Hum
%
Delta-T
°C
Wind Press
QNH
hPa
Press
MSL
hPa
Rain since
9am
mm
Dir  Spd
km/h
Gust
km/h
Spd
kts
Gust
kts
22/10:30pm 16.1 15.4 13.2 83 1.6 ESE 9 17 5 9 - - 0.0
22/10:00pm 16.2 15.5 13.1 82 1.7 SSE 9 17 5 9 - - 0.0
22/09:30pm 15.5 15.1 12.4 82 1.7 SSE 6 11 3 6 - - 0.0
22/09:00pm 15.6 15.1 12.2 80 1.9 S 6 9 3 5 - - 0.0
22/08:30pm 16.1 15.1 12.3 78 2.1 SSE 9 15 5 8 - - 0.0
22/08:00pm 15.8 15.7 12.0 78 2.1 S 4 7 2 4 - - 0.0
22/07:30pm 16.1 16.5 12.5 79 2.0 S 2 4 1 2 - - 0.0
22/07:00pm 16.6 16.3 12.6 77 2.2 SSE 6 9 3 5 - - 0.0
22/06:30pm 16.6 16.4 12.9 79 2.1 S 6 9 3 5 - - 0.0
22/06:00pm 16.5 16.3 13.0 80 2.0 S 6 9 3 5 - - 0.0
22/05:30pm 16.9 17.1 13.0 78 2.2 S 4 6 2 3 - - 0.0
22/05:00pm 18.1 18.0 13.2 73 2.8 S 6 11 3 6 - - 0.0
22/04:30pm 18.9 17.9 13.3 70 3.2 SSE 11 20 6 11 - - 0.0
22/04:00pm 19.5 18.4 13.2 67 3.6 SSE 11 22 6 12 - - 0.0
22/03:30pm 20.0 18.0 12.7 63 4.1 SSE 15 26 8 14 - - 0.0
22/03:00pm 20.3 18.3 12.8 62 4.2 SSE 15 30 8 16 - - 0.0
22/02:30pm 20.4 18.0 12.6 61 4.4 SE 17 28 9 15 - - 0.0
22/02:00pm 20.3 17.5 12.5 61 4.4 SSE 19 30 10 16 - - 0.0
22/01:30pm 20.2 17.7 12.4 61 4.4 SSE 17 33 9 18 - - 0.0
22/01:00pm 20.8 18.5 13.0 61 4.4 SSE 17 28 9 15 - - 0.0
22/12:30pm 21.0 18.6 12.7 59 4.7 SSE 17 28 9 15 - - 0.0
22/12:00pm 20.4 18.1 13.1 63 4.2 SSE 17 28 9 15 - - 0.0
22/11:30am 20.7 18.5 13.2 62 4.3 SSE 17 32 9 17 - - 0.0
22/11:00am 19.8 18.2 12.8 64 4.0 SSE 13 22 7 12 - - 0.0
22/10:30am 19.7 18.0 12.5 63 4.0 SSE 13 22 7 12 - - 0.0
22/10:00am 18.9 17.4 11.9 64 3.9 SSE 11 20 6 11 - - 0.0
22/09:30am 17.7 15.6 11.3 66 3.5 SSE 13 20 7 11 - - 0.0
22/09:00am 16.6 15.1 10.7 68 3.1 SSE 9 17 5 9 - - 0.0
22/08:30am 16.0 14.4 10.3 69 3.0 SSE 9 17 5 9 - - 0.0
22/08:00am 15.8 14.2 10.1 69 3.0 S 9 20 5 11 - - 0.0
22/07:30am 15.4 13.4 10.0 70 2.8 SSE 11 20 6 11 - - 0.0
22/07:00am 15.4 13.4 10.2 71 2.7 S 11 17 6 9 - - 0.0
22/06:30am 15.0 13.0 10.2 73 2.5 SSE 11 17 6 9 - - 0.0
22/06:00am 14.8 13.3 10.6 76 2.2 SSE 9 19 5 10 - - 0.0
22/05:30am 15.1 13.2 10.5 74 2.4 SSE 11 19 6 10 - - 0.0
22/05:00am 14.6 13.5 10.8 78 2.0 SSE 7 15 4 8 - - 0.0
22/04:30am 14.4 13.3 10.8 79 1.9 SSE 7 13 4 7 - - 0.0
22/04:00am 14.1 13.3 11.1 82 1.6 SSE 6 11 3 6 - - 0.0
22/03:30am 13.9 12.9 10.9 82 1.6 SSE 7 15 4 8 - - 0.0
22/03:00am 14.3 13.3 11.1 81 1.7 S 7 15 4 8 - - 0.0
22/02:30am 14.1 12.8 11.3 83 1.5 S 9 15 5 8 - - 0.0
22/02:00am 14.0 13.1 11.5 85 1.3 S 7 11 4 6 - - 0.0
22/01:30am 14.2 13.6 11.7 85 1.3 S 6 11 3 6 - - 0.0
22/01:00am 14.3 13.8 12.0 86 1.2 SSW 6 11 3 6 - - 0.0
22/12:30am 14.4 14.0 12.3 87 1.1 S 6 9 3 5 - - 0.0
22/12:00am 14.1 13.7 12.3 89 1.0 S 6 11 3 6 - - 0.0
 
Date/Time
EST
Temp
°C
App
Temp
°C
Dew
Point
°C
Rel
Hum
%
Delta-T
°C
Wind Press
QNH
hPa
Press
MSL
hPa
Rain since
9am
mm
Dir  Spd
km/h
Gust
km/h
Spd
kts
Gust
kts
21/11:30pm 14.1 14.1 12.3 89 1.0 SSW 4 6 2 3 - - 0.0
21/11:00pm 14.5 14.6 12.7 89 1.0 S 4 9 2 5 - - 0.0
21/10:30pm 14.5 14.3 12.9 90 0.9 S 6 7 3 4 - - 0.0
21/10:00pm 14.5 14.3 13.0 91 0.8 SSW 6 9 3 5 - - 0.0
21/09:30pm 14.3 14.1 12.9 91 0.8 SW 6 7 3 4 - - 0.0
21/09:00pm 14.6 14.7 12.8 89 1.0 SW 4 6 2 3 - - 0.0
21/08:30pm 15.2 15.0 13.1 87 1.2 S 6 7 3 4 - - 0.0
21/08:00pm 15.7 15.6 13.2 85 1.4 S 6 11 3 6 - - 0.0
21/07:30pm 15.7 15.6 13.2 85 1.4 S 6 13 3 7 - - 0.0
21/07:00pm 15.7 16.3 13.0 84 1.5 S 2 6 1 3 - - 0.0
21/06:30pm 16.0 16.2 13.1 83 1.6 SSE 4 7 2 4 - - 0.0
21/06:00pm 16.4 16.6 13.1 81 1.8 SSE 4 7 2 4 - - 0.0
21/05:30pm 17.0 16.8 13.1 78 2.2 SSE 6 9 3 5 - - 0.0
21/05:00pm 17.8 17.4 13.1 74 2.6 SSE 7 13 4 7 - - 0.0
21/04:30pm 18.6 17.8 12.8 69 3.3 SSE 9 15 5 8 - - 0.0
21/04:00pm 19.4 18.0 12.2 63 4.0 SSE 11 17 6 9 - - 0.0
21/03:30pm 19.6 19.0 12.4 63 4.0 SSE 7 13 4 7 - - 0.0
21/03:00pm 20.0 19.8 13.0 64 4.0 SSE 6 11 3 6 - - 0.0
21/02:30pm 19.1 18.3 12.8 67 3.5 SSE 9 17 5 9 - - 0.0
21/02:00pm 18.4 17.0 12.2 67 3.4 SE 11 17 6 9 - - 0.0
21/01:30pm 19.0 17.6 12.3 65 3.7 SSE 11 20 6 11 - - 0.0
21/01:00pm 19.2 17.1 12.5 65 3.8 SSE 15 24 8 13 - - 0.0
21/12:30pm 19.4 17.5 11.9 62 4.2 SSE 13 20 7 11 - - 0.0
21/12:00pm 20.1 18.3 12.1 60 4.5 SE 13 22 7 12 - - 0.0
21/11:30am 19.1 17.0 11.2 60 4.3 SSE 13 24 7 13 - - 0.0
21/11:00am 19.4 17.5 11.9 62 4.2 SE 13 22 7 12 - - 0.0
21/10:30am 18.5 15.9 10.6 60 4.3 SSE 15 22 8 12 - - 0.0
21/10:00am 17.1 15.1 10.2 64 3.7 SSE 11 20 6 11 - - 0.0
21/09:30am 16.9 14.4 9.6 62 3.8 SSE 13 26 7 14 - - 0.0
21/09:00am 16.8 14.2 9.5 62 3.8 S 13 22 7 12 - - 0.0
21/08:30am 15.7 13.2 8.4 62 3.7 S 11 17 6 9 - - 0.0
21/08:00am 14.8 12.9 7.6 62 3.6 S 7 15 4 8 - - 0.0
21/07:30am 13.9 11.5 7.2 64 3.3 S 9 13 5 7 - - 0.0
21/07:00am 12.6 10.5 6.6 67 2.9 SSE 7 11 4 6 - - 0.0
21/06:30am 12.4 10.5 6.5 67 2.8 S 6 9 3 5 - - 0.0
21/06:00am 12.7 10.6 6.5 66 3.0 S 7 15 4 8 - - 0.0
21/05:30am 12.0 10.0 6.3 68 2.7 S 6 11 3 6 - - 0.0
21/05:00am 12.2 10.0 6.3 67 2.8 S 7 13 4 7 - - 0.0
21/04:30am 12.3 10.2 6.6 68 2.7 S 7 11 4 6 - - 0.0
21/04:00am 12.0 10.1 6.5 69 2.6 SSE 6 9 3 5 - - 0.0
21/03:30am 12.0 10.8 6.5 69 2.6 S 2 6 1 3 - - 0.0
21/03:00am 12.5 10.6 6.5 67 2.9 S 6 9 3 5 - - 0.0
21/02:30am 12.6 10.6 6.9 68 2.7 S 7 11 4 6 - - 0.0
21/02:00am 12.4 10.6 7.1 70 2.6 SSW 6 9 3 5 - - 0.0
21/01:30am 12.4 10.6 7.3 71 2.5 SSW 6 9 3 5 - - 0.0
21/01:00am 12.9 11.6 7.6 70 2.6 S 4 11 2 6 - - 0.0
21/12:30am 12.9 11.3 7.8 71 2.5 SSW 6 7 3 4 - - 0.0
21/12:00am 13.3 12.1 8.0 70 2.6 SSW 4 7 2 4 - - 0.0
 
Date/Time
EST
Temp
°C
App
Temp
°C
Dew
Point
°C
Rel
Hum
%
Delta-T
°C
Wind Press
QNH
hPa
Press
MSL
hPa
Rain since
9am
mm
Dir  Spd
km/h
Gust
km/h
Spd
kts
Gust
kts
20/11:30pm 13.6 12.6 8.7 72 2.5 SSW 4 7 2 4 - - 0.0
20/11:00pm 13.5 12.7 9.6 77 2.0 SW 4 6 2 3 - - 0.0
20/10:30pm 13.5 12.7 9.6 77 2.0 SW 4 6 2 3 - - 0.0
20/10:00pm 13.6 12.8 9.8 78 2.0 SW 4 9 2 5 - - 0.0
20/09:30pm 13.5 12.7 9.7 78 2.0 SW 4 6 2 3 - - 0.0
20/09:00pm 14.1 13.3 9.7 75 2.3 SW 4 6 2 3 - - 0.0
20/08:30pm 14.7 13.9 9.7 72 2.6 SSW 4 6 2 3 - - 0.0
20/08:00pm 15.2 14.5 10.0 71 2.7 SSW 4 6 2 3 - - 0.0
20/07:30pm 15.6 14.9 10.2 70 2.8 S 4 6 2 3 - - 0.0
20/07:00pm 15.9 15.2 10.2 69 3.0 S 4 9 2 5 - - 0.0
20/06:30pm 16.3 15.6 10.2 67 3.2 S 4 7 2 4 - - 0.0
20/06:00pm 16.7 16.1 10.3 66 3.4 SSE 4 6 2 3 - - 0.0
20/05:30pm 17.2 16.5 10.1 63 3.8 SSE 4 9 2 5 - - 0.0
20/05:00pm 17.7 16.7 10.3 62 3.9 SSE 6 13 3 7 - - 0.0
20/04:30pm 18.5 16.9 10.1 58 4.5 SSE 9 17 5 9 - - 0.0
20/04:00pm 19.1 17.6 10.4 57 4.7 SSE 9 22 5 12 - - 0.0
20/03:30pm 19.7 16.5 10.1 54 5.2 SSE 17 32 9 17 - - 0.0
20/03:00pm 19.9 17.2 10.3 54 5.2 SSE 15 30 8 16 - - 0.0
20/02:30pm 20.1 17.3 9.9 52 5.5 SSE 15 26 8 14 - - 0.0
20/02:00pm 20.1 16.8 9.7 51 5.6 SE 17 28 9 15 - - 0.0
20/01:30pm 20.2 17.7 9.7 51 5.6 SSE 13 20 7 11 - - 0.0
20/01:00pm 19.5 15.8 9.4 52 5.3 SE 19 32 10 17 - - 0.0
20/12:30pm 19.3 16.7 9.2 52 5.3 S 13 24 7 13 - - 0.0
20/12:00pm 18.9 15.7 8.6 51 5.4 SSE 15 24 8 13 - - 0.0
20/11:30am 18.6 15.1 8.6 52 5.2 SSE 17 30 9 16 - - 0.0
20/11:00am 18.4 15.6 8.4 52 5.2 SSE 13 22 7 12 - - 0.0
20/10:30am 17.3 15.2 8.2 55 4.6 S 9 19 5 10 - - 0.0
20/10:00am 16.4 14.6 7.9 57 4.3 SSW 7 11 4 6 - - 0.0
20/09:30am 15.2 12.8 7.0 58 4.0 S 9 19 5 10 - - 0.0
20/09:00am 14.0 12.5 6.8 62 3.5 SSW 4 7 2 4 - - 0.0
20/08:30am 12.2 10.0 5.4 63 3.2 SSW 6 13 3 7 - - 0.0
20/08:00am 11.0 8.7 4.7 65 2.8 SSW 6 9 3 5 - - 0.0
20/07:30am 9.7 7.2 4.5 70 2.3 SW 7 13 4 7 - - 0.0
20/07:00am 8.7 6.1 4.1 73 2.0 SW 7 11 4 6 - - 0.0
20/06:30am 7.6 4.9 3.5 75 1.7 SSW 7 9 4 5 - - 0.0
20/06:00am 7.8 5.3 3.7 75 1.8 SSW 6 9 3 5 - - 0.0
20/05:30am 7.0 5.1 5.0 87 0.9 S 4 9 2 5 - - 0.0
20/05:00am 5.0 3.7 4.0 93 0.4 CALM 0 0 0 0 - - 0.0
20/04:30am 5.3 4.0 4.3 93 0.4 CALM 0 0 0 0 - - 0.0
20/04:00am 4.9 3.6 4.0 94 0.4 CALM 0 0 0 0 - - 0.0
20/03:30am 5.4 4.1 4.2 92 0.5 CALM 0 2 0 1 - - 0.0
20/03:00am 5.4 4.1 4.2 92 0.5 CALM 0 0 0 0 - - 0.0
20/02:30am 5.7 4.5 4.5 92 0.5 CALM 0 2 0 1 - - 0.0
20/02:00am 5.1 3.7 3.3 88 0.7 CALM 0 0 0 0 - - 0.0
20/01:30am 5.8 4.0 3.5 85 1.0 S 2 4 1 2 - - 0.0
20/01:00am 5.9 4.6 4.2 89 0.7 CALM 0 0 0 0 - - 0.0
20/12:30am 6.2 4.9 4.0 86 0.9 CALM 0 0 0 0 - - 0.0
20/12:00am 7.3 6.1 4.8 84 1.1 CALM 0 0 0 0 - - 0.0
 
Date/Time
EST
Temp
°C
App
Temp
°C
Dew
Point
°C
Rel
Hum
%
Delta-T
°C
Wind Press
QNH
hPa
Press
MSL
hPa
Rain since
9am
mm
Dir  Spd
km/h
Gust
km/h
Spd
kts
Gust
kts
19/11:30pm 6.3 4.9 3.5 82 1.2 CALM 0 0 0 0 - - 0.0
19/11:00pm 7.6 6.3 4.0 78 1.6 CALM 0 2 0 1 - - 0.0

Latest Capital City Observations: Canberra | Sydney | Melbourne | Brisbane | Adelaide | Perth | Hobart | Darwin

Other Formats:

Comma delimited format used in spreadsheet applications
http://www.bom.gov.au/fwo/IDQ60901/IDQ60901.94420.axf

JavaScript Object Notation format (JSON) in row-major order
http://www.bom.gov.au/fwo/IDQ60901/IDQ60901.94420.json